createdAt,value
2023-01-29T00:01:54.084Z,2.93
2023-01-29T00:04:20.867Z,2.94
2023-01-29T00:06:47.469Z,2.90
2023-01-29T00:09:14.206Z,2.91
2023-01-29T00:11:41.065Z,2.89
2023-01-29T00:14:07.983Z,2.86
2023-01-29T00:16:34.526Z,2.87
2023-01-29T00:19:02.438Z,2.87
2023-01-29T00:21:31.101Z,2.86
2023-01-29T00:23:58.325Z,2.86
2023-01-29T00:26:25.008Z,2.84
2023-01-29T00:28:51.627Z,2.85
2023-01-29T00:31:21.195Z,2.83
2023-01-29T00:33:48.319Z,2.82
2023-01-29T00:36:17.589Z,2.85
2023-01-29T00:38:44.379Z,2.86
2023-01-29T00:41:32.678Z,2.87
2023-01-29T00:44:18.973Z,2.89
2023-01-29T00:46:46.315Z,2.89
2023-01-29T00:49:12.945Z,2.90
2023-01-29T00:51:39.890Z,2.87
2023-01-29T00:54:09.750Z,2.84
2023-01-29T00:56:37.206Z,2.84
2023-01-29T00:59:04.517Z,2.86
2023-01-29T01:01:49.809Z,2.86
2023-01-29T01:04:16.447Z,2.85
2023-01-29T01:06:43.724Z,2.83
2023-01-29T01:09:29.761Z,2.86
2023-01-29T01:11:56.417Z,2.86
2023-01-29T01:14:23.081Z,2.88
2023-01-29T01:16:50.170Z,2.88
2023-01-29T01:19:16.974Z,2.88
2023-01-29T01:21:45.574Z,2.89
2023-01-29T01:24:12.964Z,2.88
2023-01-29T01:26:39.897Z,2.89
2023-01-29T01:29:06.980Z,2.90
2023-01-29T01:31:33.757Z,2.88
2023-01-29T01:34:00.353Z,2.88
2023-01-29T01:36:26.876Z,2.89
2023-01-29T01:38:54.363Z,2.89
2023-01-29T01:41:23.323Z,2.88
2023-01-29T01:43:49.866Z,2.90
2023-01-29T01:46:17.128Z,2.91
2023-01-29T01:48:45.969Z,2.92
2023-01-29T01:51:15.660Z,2.94
2023-01-29T01:53:50.224Z,2.93
2023-01-29T01:56:26.578Z,2.93
2023-01-29T01:58:56.951Z,2.94
2023-01-29T02:01:28.119Z,2.94
2023-01-29T02:04:23.413Z,2.96
2023-01-29T02:07:11.074Z,2.95
2023-01-29T02:09:46.492Z,2.94
2023-01-29T02:12:16.121Z,2.95
2023-01-29T02:14:44.177Z,2.94
2023-01-29T02:17:14.335Z,2.92
2023-01-29T02:20:05.665Z,2.92
2023-01-29T02:22:35.471Z,2.89
2023-01-29T02:25:26.923Z,2.88
2023-01-29T02:28:14.154Z,2.89
2023-01-29T02:30:56.377Z,2.85
2023-01-29T02:33:48.149Z,2.85
2023-01-29T02:36:40.840Z,2.87
2023-01-29T02:39:23.821Z,2.90
2023-01-29T02:42:11.716Z,2.89
2023-01-29T02:44:44.018Z,2.90
2023-01-29T02:47:38.219Z,2.89
2023-01-29T02:50:29.758Z,2.91
2023-01-29T02:53:11.149Z,2.86
2023-01-29T02:55:52.910Z,2.83
2023-01-29T02:58:28.123Z,2.84
2023-01-29T03:00:59.249Z,2.85
2023-01-29T03:03:28.294Z,2.86
2023-01-29T03:06:22.535Z,2.88
2023-01-29T03:09:05.180Z,2.86
2023-01-29T03:11:42.511Z,2.86
2023-01-29T03:14:18.202Z,2.87
2023-01-29T03:16:51.559Z,2.85
2023-01-29T03:19:26.214Z,2.86
2023-01-29T03:22:01.106Z,2.89
2023-01-29T03:25:09.673Z,2.89
2023-01-29T03:28:08.096Z,2.90
2023-01-29T03:30:57.311Z,2.89
2023-01-29T03:33:26.643Z,2.91
2023-01-29T03:36:02.581Z,2.90
2023-01-29T03:38:32.174Z,2.90
2023-01-29T03:41:23.026Z,2.90
2023-01-29T03:44:34.591Z,2.86
2023-01-29T03:47:29.204Z,2.86
2023-01-29T03:50:17.578Z,2.85
2023-01-29T03:52:53.607Z,2.83
2023-01-29T03:55:49.540Z,2.85
2023-01-29T03:58:41.162Z,2.86
2023-01-29T04:01:13.456Z,2.88
2023-01-29T04:03:43.748Z,2.85
2023-01-29T04:06:15.123Z,2.86
2023-01-29T04:09:06.415Z,2.88
2023-01-29T04:11:37.325Z,2.87
2023-01-29T04:14:04.602Z,2.86
2023-01-29T04:16:39.950Z,2.84
2023-01-29T04:19:06.998Z,2.87
2023-01-29T04:21:37.627Z,2.87
2023-01-29T04:24:06.769Z,2.81
2023-01-29T04:26:52.135Z,2.78
2023-01-29T04:29:38.539Z,2.78
2023-01-29T04:32:08.227Z,2.74
2023-01-29T04:34:58.995Z,2.72
2023-01-29T04:37:59.601Z,2.73
2023-01-29T04:40:39.363Z,2.72
2023-01-29T04:43:29.193Z,2.73
2023-01-29T04:46:07.341Z,2.72
2023-01-29T04:48:36.804Z,2.69
2023-01-29T04:51:21.125Z,2.69
2023-01-29T04:53:57.237Z,2.67
2023-01-29T04:56:33.296Z,2.66
2023-01-29T04:59:07.568Z,2.63
2023-01-29T05:01:36.032Z,2.64
2023-01-29T05:04:07.454Z,2.62
2023-01-29T05:06:35.968Z,2.61
2023-01-29T05:09:03.479Z,2.63
2023-01-29T05:11:32.833Z,2.60
2023-01-29T05:14:02.363Z,2.58
2023-01-29T05:16:42.018Z,2.59
2023-01-29T05:19:13.608Z,2.59
2023-01-29T05:21:43.776Z,2.59
2023-01-29T05:24:19.634Z,2.59
2023-01-29T05:27:07.451Z,2.60
2023-01-29T05:29:34.280Z,2.60
2023-01-29T05:32:01.138Z,2.57
2023-01-29T05:34:27.693Z,2.55
2023-01-29T05:36:54.298Z,2.56
2023-01-29T05:39:20.913Z,2.58
2023-01-29T05:41:47.802Z,2.56
2023-01-29T05:44:14.300Z,2.57
2023-01-29T05:46:40.965Z,2.55
2023-01-29T05:49:07.652Z,2.54
2023-01-29T05:51:34.394Z,2.54
2023-01-29T05:54:01.918Z,2.56
2023-01-29T05:56:28.564Z,2.57
2023-01-29T05:58:55.741Z,2.55
2023-01-29T06:01:25.154Z,2.57
2023-01-29T06:03:52.109Z,2.54
2023-01-29T06:06:18.990Z,2.53
2023-01-29T06:08:45.729Z,2.53
2023-01-29T06:11:14.202Z,2.54
2023-01-29T06:13:41.078Z,2.55
2023-01-29T06:16:08.922Z,2.52
2023-01-29T06:18:39.879Z,2.53
2023-01-29T06:21:10.376Z,2.53
2023-01-29T06:23:37.355Z,2.53
2023-01-29T06:26:09.105Z,2.53
2023-01-29T06:28:35.708Z,2.54
2023-01-29T06:31:23.756Z,2.52
2023-01-29T06:33:50.973Z,2.52
2023-01-29T06:36:17.702Z,2.53
2023-01-29T06:38:44.288Z,2.52
2023-01-29T06:41:13.048Z,2.52
2023-01-29T06:43:40.078Z,2.53
2023-01-29T06:46:08.174Z,2.55
2023-01-29T06:48:35.284Z,2.55
2023-01-29T06:51:06.784Z,2.57
2023-01-29T06:53:34.747Z,2.58
2023-01-29T06:56:01.252Z,2.58
2023-01-29T06:58:27.772Z,2.57
2023-01-29T07:00:54.432Z,2.58
2023-01-29T07:03:21.236Z,2.57
2023-01-29T07:05:53.058Z,2.57
2023-01-29T07:08:22.627Z,2.58
2023-01-29T07:10:52.974Z,2.59
2023-01-29T07:13:19.502Z,2.60
2023-01-29T07:15:46.317Z,2.60
2023-01-29T07:18:12.795Z,2.61
2023-01-29T07:20:40.758Z,2.60
2023-01-29T07:23:10.965Z,2.57
2023-01-29T07:25:37.777Z,2.56
2023-01-29T07:28:05.095Z,2.57
2023-01-29T07:30:32.010Z,2.59
2023-01-29T07:33:16.728Z,2.60
2023-01-29T07:35:43.765Z,2.60
2023-01-29T07:38:14.002Z,2.60
2023-01-29T07:40:40.823Z,2.61
2023-01-29T07:43:08.049Z,2.60
2023-01-29T07:45:39.759Z,2.62
2023-01-29T07:48:09.753Z,2.63
2023-01-29T07:50:36.589Z,2.64
2023-01-29T07:53:03.761Z,2.64
2023-01-29T07:55:30.967Z,2.65
2023-01-29T07:57:57.898Z,2.67
2023-01-29T08:00:25.212Z,2.66
2023-01-29T08:02:51.921Z,2.69
2023-01-29T08:05:19.066Z,2.70
2023-01-29T08:07:51.487Z,2.71
2023-01-29T08:10:24.822Z,2.72
2023-01-29T08:12:59.328Z,2.74
2023-01-29T08:15:28.056Z,2.75
2023-01-29T08:17:58.085Z,2.76
2023-01-29T08:20:25.784Z,2.76
2023-01-29T08:23:00.234Z,2.77
2023-01-29T08:25:27.386Z,2.79
2023-01-29T08:27:54.220Z,2.81
2023-01-29T08:30:20.850Z,2.85
2023-01-29T08:32:47.435Z,2.87
2023-01-29T08:35:13.979Z,2.89
2023-01-29T08:37:40.548Z,2.89
2023-01-29T08:40:09.526Z,2.91
2023-01-29T08:42:36.436Z,2.94
2023-01-29T08:45:05.013Z,2.95
2023-01-29T08:47:31.554Z,2.97
2023-01-29T08:49:58.048Z,2.98
2023-01-29T08:52:24.915Z,2.98
2023-01-29T08:54:51.453Z,3.04
2023-01-29T08:57:18.054Z,3.07
2023-01-29T08:59:44.535Z,3.07
2023-01-29T09:02:11.961Z,3.07
2023-01-29T09:04:38.587Z,3.08
2023-01-29T09:07:05.196Z,3.09
2023-01-29T09:09:31.798Z,3.12
2023-01-29T09:11:58.664Z,3.13
2023-01-29T09:14:25.492Z,3.14
2023-01-29T09:16:52.156Z,3.14
2023-01-29T09:19:18.726Z,3.16
2023-01-29T09:21:45.264Z,3.16
2023-01-29T09:24:11.937Z,3.19
2023-01-29T09:26:40.203Z,3.24
2023-01-29T09:29:07.076Z,3.27
2023-01-29T09:31:33.722Z,3.30
2023-01-29T09:34:00.381Z,3.30
2023-01-29T09:36:26.987Z,3.31
2023-01-29T09:38:53.569Z,3.32
2023-01-29T09:41:51.684Z,3.35
2023-01-29T09:44:47.622Z,3.39
2023-01-29T09:47:17.261Z,3.44
2023-01-29T09:49:48.388Z,3.43
2023-01-29T09:52:14.793Z,3.45
2023-01-29T09:55:15.352Z,3.45
2023-01-29T09:57:50.642Z,3.51
2023-01-29T10:00:44.536Z,3.55
2023-01-29T10:03:35.658Z,3.58
2023-01-29T10:06:23.376Z,3.61
2023-01-29T10:09:34.988Z,3.63
2023-01-29T10:12:53.626Z,3.69
2023-01-29T10:15:38.683Z,3.68
2023-01-29T10:18:38.200Z,3.70
2023-01-29T10:21:11.609Z,3.74
2023-01-29T10:23:46.166Z,3.75
2023-01-29T10:26:14.731Z,3.73
2023-01-29T10:28:48.464Z,3.73
2023-01-29T10:31:25.279Z,3.72
2023-01-29T10:34:03.462Z,3.72
2023-01-29T10:36:42.982Z,3.74
2023-01-29T10:39:30.971Z,3.71
2023-01-29T10:42:06.463Z,3.71
2023-01-29T10:44:53.564Z,3.74
2023-01-29T10:47:34.725Z,3.77
2023-01-29T10:50:26.564Z,3.80
2023-01-29T10:52:58.987Z,3.83
2023-01-29T10:55:41.638Z,3.84
2023-01-29T10:58:31.902Z,3.88
2023-01-29T11:00:59.656Z,3.91
2023-01-29T11:03:29.130Z,3.92
2023-01-29T11:06:04.763Z,3.95
2023-01-29T11:08:41.382Z,3.96
2023-01-29T11:11:15.511Z,3.96
2023-01-29T11:14:07.788Z,3.98
2023-01-29T11:16:49.835Z,3.99
2023-01-29T11:19:16.728Z,3.99
2023-01-29T11:21:57.874Z,4.02
2023-01-29T11:24:24.704Z,4.03
2023-01-29T11:26:59.561Z,4.03
2023-01-29T11:29:38.806Z,4.01
2023-01-29T11:32:11.993Z,4.02
2023-01-29T11:34:56.736Z,4.02
2023-01-29T11:37:23.899Z,4.03
2023-01-29T11:39:50.722Z,4.03
2023-01-29T11:42:22.238Z,4.05
2023-01-29T11:44:49.620Z,4.04
2023-01-29T11:47:16.031Z,4.07
2023-01-29T11:49:55.128Z,4.01
2023-01-29T11:52:24.669Z,4.02
2023-01-29T11:54:59.417Z,4.01
2023-01-29T11:57:30.437Z,4.00
2023-01-29T12:00:02.760Z,4.02
2023-01-29T12:02:37.048Z,4.02
2023-01-29T12:05:14.555Z,4.00
2023-01-29T12:07:42.967Z,4.00
2023-01-29T12:10:30.775Z,4.01
2023-01-29T12:13:21.783Z,4.00
2023-01-29T12:15:49.175Z,4.00
2023-01-29T12:18:15.686Z,4.03
2023-01-29T12:20:50.610Z,4.03
2023-01-29T12:23:28.322Z,4.04
2023-01-29T12:26:15.957Z,4.02
2023-01-29T12:29:20.857Z,4.00
2023-01-29T12:31:59.759Z,4.02
2023-01-29T12:34:46.416Z,4.03
2023-01-29T12:37:30.817Z,4.03
2023-01-29T12:39:57.363Z,4.04
2023-01-29T12:42:25.489Z,4.05
2023-01-29T12:44:59.552Z,4.08
2023-01-29T12:47:36.821Z,4.09
2023-01-29T12:50:27.613Z,4.09
2023-01-29T12:53:01.798Z,4.11
2023-01-29T12:55:36.979Z,4.10
2023-01-29T12:58:09.327Z,4.09
2023-01-29T13:00:40.387Z,4.10
2023-01-29T13:03:25.670Z,4.09
2023-01-29T13:05:57.166Z,4.09
2023-01-29T13:08:29.379Z,4.09
2023-01-29T13:10:58.686Z,4.07
2023-01-29T13:13:32.974Z,4.07
2023-01-29T13:16:01.306Z,4.07
2023-01-29T13:18:45.244Z,4.07
2023-01-29T13:21:18.435Z,4.09
2023-01-29T13:23:51.345Z,4.13
2023-01-29T13:26:19.858Z,4.16
2023-01-29T13:28:47.559Z,4.23
2023-01-29T13:31:19.944Z,4.31
2023-01-29T13:33:55.416Z,4.36
2023-01-29T13:36:29.123Z,4.38
2023-01-29T13:39:17.100Z,4.40
2023-01-29T13:41:43.759Z,4.39
2023-01-29T13:44:39.772Z,4.42
2023-01-29T13:47:10.426Z,4.45
2023-01-29T13:49:46.346Z,4.49
2023-01-29T13:52:34.075Z,4.51
2023-01-29T13:55:05.840Z,4.50
2023-01-29T13:57:55.939Z,4.52
2023-01-29T14:00:22.696Z,4.55
2023-01-29T14:02:55.223Z,4.61
2023-01-29T14:05:31.003Z,4.61
2023-01-29T14:07:59.565Z,4.62
2023-01-29T14:10:28.813Z,4.62
2023-01-29T14:13:23.900Z,4.62
2023-01-29T14:15:59.486Z,4.64
2023-01-29T14:18:28.084Z,4.66
2023-01-29T14:21:07.148Z,4.69
2023-01-29T14:23:50.696Z,4.70
2023-01-29T14:26:28.868Z,4.71
2023-01-29T14:29:03.049Z,4.71
2023-01-29T14:31:35.135Z,4.71
2023-01-29T14:34:04.979Z,4.73
2023-01-29T14:36:40.103Z,4.74
2023-01-29T14:39:07.663Z,4.75
2023-01-29T14:41:36.003Z,4.75
2023-01-29T14:44:40.420Z,4.74
2023-01-29T14:47:18.770Z,4.75
2023-01-29T14:49:49.297Z,4.73
2023-01-29T14:52:18.026Z,4.74
2023-01-29T14:54:47.909Z,4.74
2023-01-29T14:57:17.177Z,4.69
2023-01-29T14:59:49.684Z,4.69
2023-01-29T15:02:26.473Z,4.69
2023-01-29T15:04:58.175Z,4.67
2023-01-29T15:07:31.970Z,4.69
2023-01-29T15:10:21.479Z,4.68
2023-01-29T15:13:09.179Z,4.69
2023-01-29T15:15:35.716Z,4.71
2023-01-29T15:18:05.018Z,4.71
2023-01-29T15:20:37.407Z,4.72
2023-01-29T15:23:23.744Z,4.71
2023-01-29T15:25:52.861Z,4.69
2023-01-29T15:28:20.070Z,4.69
2023-01-29T15:30:54.099Z,4.67
2023-01-29T15:33:21.330Z,4.63
2023-01-29T15:35:49.851Z,4.63
2023-01-29T15:38:26.693Z,4.62
2023-01-29T15:41:01.971Z,4.62
2023-01-29T15:43:37.268Z,4.60
2023-01-29T15:46:27.062Z,4.59
2023-01-29T15:48:54.936Z,4.58
2023-01-29T15:51:25.594Z,4.56
2023-01-29T15:53:56.121Z,4.56
2023-01-29T15:56:30.424Z,4.55
2023-01-29T15:59:00.770Z,4.53
2023-01-29T16:01:28.785Z,4.54
2023-01-29T16:03:59.365Z,4.52
2023-01-29T16:06:38.829Z,4.49
2023-01-29T16:09:07.327Z,4.46
2023-01-29T16:11:35.721Z,4.45
2023-01-29T16:14:03.487Z,4.45
2023-01-29T16:16:30.272Z,4.44
2023-01-29T16:19:01.386Z,4.38
2023-01-29T16:21:39.080Z,4.34
2023-01-29T16:24:11.778Z,4.30
2023-01-29T16:26:44.876Z,4.27
2023-01-29T16:29:21.763Z,4.25
2023-01-29T16:31:52.124Z,4.23
2023-01-29T16:34:35.120Z,4.19
2023-01-29T16:37:04.377Z,4.16
2023-01-29T16:39:35.750Z,4.13
2023-01-29T16:42:17.546Z,4.12
2023-01-29T16:45:05.706Z,4.10
2023-01-29T16:47:41.218Z,4.08
2023-01-29T16:50:43.399Z,4.06
2023-01-29T16:53:23.362Z,4.04
2023-01-29T16:55:52.495Z,3.98
2023-01-29T16:58:28.250Z,3.96
2023-01-29T17:01:02.169Z,3.96
2023-01-29T17:03:32.589Z,3.94
2023-01-29T17:06:08.455Z,3.91
2023-01-29T17:08:35.626Z,3.89
2023-01-29T17:11:02.883Z,3.87
2023-01-29T17:13:42.687Z,3.83
2023-01-29T17:16:29.813Z,3.79
2023-01-29T17:18:56.458Z,3.79
2023-01-29T17:21:23.691Z,3.77
2023-01-29T17:23:50.699Z,3.76
2023-01-29T17:26:17.987Z,3.75
2023-01-29T17:28:45.107Z,3.75
2023-01-29T17:31:11.952Z,3.75
2023-01-29T17:33:42.775Z,3.73
2023-01-29T17:36:13.290Z,3.73
2023-01-29T17:38:40.395Z,3.71
2023-01-29T17:41:14.174Z,3.70
2023-01-29T17:43:40.743Z,3.71
2023-01-29T17:46:13.626Z,3.69
2023-01-29T17:48:40.737Z,3.68
2023-01-29T17:51:15.119Z,3.68
2023-01-29T17:53:45.784Z,3.70
2023-01-29T17:56:28.121Z,3.70
2023-01-29T17:58:54.691Z,3.71
2023-01-29T18:01:21.435Z,3.71
2023-01-29T18:03:47.964Z,3.71
2023-01-29T18:06:27.347Z,3.71
2023-01-29T18:08:53.963Z,3.71
2023-01-29T18:11:24.136Z,3.71
2023-01-29T18:13:50.961Z,3.72
2023-01-29T18:16:18.531Z,3.75
2023-01-29T18:18:45.211Z,3.77
2023-01-29T18:21:11.769Z,3.78
2023-01-29T18:23:38.345Z,3.77
2023-01-29T18:26:05.121Z,3.78
2023-01-29T18:28:31.632Z,3.78
2023-01-29T18:30:58.211Z,3.80
2023-01-29T18:33:25.939Z,3.80
2023-01-29T18:35:55.007Z,3.82
2023-01-29T18:38:21.616Z,3.84
2023-01-29T18:40:50.099Z,3.84
2023-01-29T18:43:16.949Z,3.84
2023-01-29T18:45:43.492Z,3.87
2023-01-29T18:48:10.132Z,3.86
2023-01-29T18:50:37.909Z,3.89
2023-01-29T18:53:04.494Z,3.90
2023-01-29T18:55:31.269Z,3.90
2023-01-29T18:58:25.919Z,3.91
2023-01-29T19:00:47.214Z,3.90
2023-01-29T19:03:13.707Z,3.91
2023-01-29T19:05:40.262Z,3.91
2023-01-29T19:08:09.616Z,3.90
2023-01-29T19:10:36.423Z,3.90
2023-01-29T19:13:05.293Z,3.91
2023-01-29T19:15:32.476Z,3.89
2023-01-29T19:17:59.029Z,3.89
2023-01-29T19:20:25.553Z,3.90
2023-01-29T19:22:54.323Z,3.90
2023-01-29T19:25:21.301Z,3.90
2023-01-29T19:27:47.905Z,3.91
2023-01-29T19:30:14.720Z,3.92
2023-01-29T19:32:41.502Z,3.92
2023-01-29T19:35:08.272Z,3.92
2023-01-29T19:37:34.823Z,3.94
2023-01-29T19:40:01.380Z,3.94
2023-01-29T19:42:28.219Z,3.93
2023-01-29T19:44:54.775Z,3.95
2023-01-29T19:47:21.422Z,3.96
2023-01-29T19:49:48.014Z,3.96
2023-01-29T19:52:49.896Z,3.96
2023-01-29T19:55:17.550Z,3.96
2023-01-29T19:57:44.381Z,3.95
2023-01-29T20:00:12.209Z,3.97
2023-01-29T20:02:38.782Z,3.95
2023-01-29T20:05:07.054Z,3.97
2023-01-29T20:07:36.046Z,3.98
2023-01-29T20:10:02.746Z,3.98
2023-01-29T20:12:30.008Z,3.99
2023-01-29T20:14:56.634Z,4.00
2023-01-29T20:17:23.305Z,4.02
2023-01-29T20:19:49.763Z,4.01
2023-01-29T20:22:16.432Z,4.03
2023-01-29T20:24:42.923Z,4.04
2023-01-29T20:27:10.698Z,4.05
2023-01-29T20:29:38.614Z,4.04
2023-01-29T20:32:07.979Z,4.06
2023-01-29T20:34:35.175Z,4.06
2023-01-29T20:37:01.942Z,4.07
2023-01-29T20:39:28.624Z,4.07
2023-01-29T20:41:57.262Z,4.08
2023-01-29T20:44:24.628Z,4.10
2023-01-29T20:46:51.396Z,4.11
2023-01-29T20:49:18.406Z,4.12
2023-01-29T20:51:45.703Z,4.13
2023-01-29T20:54:14.999Z,4.13
2023-01-29T20:56:47.044Z,4.15
2023-01-29T20:59:14.298Z,4.17
2023-01-29T21:01:43.670Z,4.19
2023-01-29T21:04:10.235Z,4.19
2023-01-29T21:06:36.756Z,4.21
2023-01-29T21:09:03.738Z,4.23
2023-01-29T21:11:30.322Z,4.26
2023-01-29T21:13:57.907Z,4.27
2023-01-29T21:16:26.353Z,4.30
2023-01-29T21:19:01.987Z,4.32
2023-01-29T21:21:28.769Z,4.35
2023-01-29T21:23:55.250Z,4.37
2023-01-29T21:26:23.291Z,4.37
2023-01-29T21:28:50.045Z,4.40
2023-01-29T21:31:17.639Z,4.43
2023-01-29T21:33:44.528Z,4.48
2023-01-29T21:36:14.867Z,4.50
2023-01-29T21:38:41.418Z,4.55
2023-01-29T21:41:14.504Z,4.59
2023-01-29T21:43:41.018Z,4.61
2023-01-29T21:46:14.148Z,4.67
2023-01-29T21:48:40.779Z,4.69
2023-01-29T21:51:07.986Z,4.72
2023-01-29T21:53:34.973Z,4.76
2023-01-29T21:56:02.885Z,4.76
2023-01-29T21:58:29.982Z,4.77
2023-01-29T22:00:57.386Z,4.78
2023-01-29T22:03:46.118Z,4.81
2023-01-29T22:06:13.634Z,4.83
2023-01-29T22:08:40.130Z,4.84
2023-01-29T22:11:07.411Z,4.84
2023-01-29T22:13:34.122Z,4.86
2023-01-29T22:16:00.908Z,4.86
2023-01-29T22:18:27.764Z,4.87
2023-01-29T22:20:55.275Z,4.89
2023-01-29T22:23:22.883Z,4.89
2023-01-29T22:25:49.668Z,4.90
2023-01-29T22:28:17.069Z,4.90
2023-01-29T22:30:45.110Z,4.90
2023-01-29T22:33:12.245Z,4.90
2023-01-29T22:35:38.979Z,4.93
2023-01-29T22:38:05.510Z,4.95
2023-01-29T22:40:32.110Z,4.97
2023-01-29T22:42:58.620Z,4.98
2023-01-29T22:45:25.272Z,5.00
2023-01-29T22:47:51.727Z,5.03
2023-01-29T22:50:18.468Z,5.06
2023-01-29T22:52:54.050Z,5.08
2023-01-29T22:55:20.841Z,5.12
2023-01-29T22:57:49.520Z,5.15
2023-01-29T23:00:16.826Z,5.16
2023-01-29T23:02:43.491Z,5.18
2023-01-29T23:05:10.042Z,5.22
2023-01-29T23:07:39.450Z,5.25
2023-01-29T23:10:07.250Z,5.28
2023-01-29T23:12:37.010Z,5.31
2023-01-29T23:15:03.874Z,5.34
2023-01-29T23:17:30.477Z,5.38
2023-01-29T23:19:56.952Z,5.38
2023-01-29T23:22:23.599Z,5.42
2023-01-29T23:24:50.214Z,5.44
2023-01-29T23:27:16.808Z,5.47
2023-01-29T23:29:45.116Z,5.53
2023-01-29T23:32:16.495Z,5.56
2023-01-29T23:34:42.968Z,5.58
2023-01-29T23:37:09.812Z,5.60
2023-01-29T23:39:36.446Z,5.63
2023-01-29T23:42:03.160Z,5.64
2023-01-29T23:44:29.633Z,5.66
2023-01-29T23:46:56.263Z,5.67
2023-01-29T23:49:22.857Z,5.73
2023-01-29T23:51:51.314Z,5.73
2023-01-29T23:54:18.390Z,5.77
2023-01-29T23:56:45.190Z,5.80
2023-01-29T23:59:11.836Z,5.82
